Time;durP1;ratioP1;P1;durP2;ratioP2;P2;SDS_P1;SDS_P2;PMS_P1;PMS_P2;Temp;Humidity;BMP_temperature;BMP_pressure;BME280_temperature;BME280_humidity;BME280_pressure;Samples;Min_cycle;Max_cycle;Signal;HPM_P1;HPM_P2
2021/09/17 00:00:54;;;;;;;4.78;2.08;;;21.70;58.00;;;;;;5048494;28;20067;-51
2021/09/17 00:03:25;;;;;;;2.92;1.70;;;21.70;57.90;;;;;;5047978;28;20037;-52
2021/09/17 00:05:53;;;;;;;3.05;2.75;;;21.70;57.90;;;;;;5049141;28;20045;-51
2021/09/17 00:08:20;;;;;;;3.47;2.00;;;21.60;58.00;;;;;;5049418;28;20425;-49
2021/09/17 00:10:48;;;;;;;1.80;1.70;;;21.60;58.20;;;;;;5048031;28;20037;-49
2021/09/17 00:13:15;;;;;;;5.45;3.05;;;21.60;58.30;;;;;;5048555;28;20451;-51
2021/09/17 00:15:43;;;;;;;2.33;2.10;;;21.50;58.40;;;;;;5048343;28;20044;-49
2021/09/17 00:18:10;;;;;;;2.00;1.73;;;21.50;58.40;;;;;;5047434;28;20087;-48
2021/09/17 00:20:39;;;;;;;3.63;2.05;;;21.50;58.60;;;;;;5049634;28;20041;-48
2021/09/17 00:23:06;;;;;;;6.78;1.70;;;21.40;58.70;;;;;;5045886;28;20033;-49
2021/09/17 00:25:34;;;;;;;3.22;2.17;;;21.40;58.80;;;;;;5047937;28;20527;-50
2021/09/17 00:28:01;;;;;;;2.03;1.58;;;21.40;59.00;;;;;;5048215;28;20115;-49
2021/09/17 00:30:29;;;;;;;7.20;2.83;;;21.40;59.20;;;;;;5047994;28;20043;-49
2021/09/17 00:32:56;;;;;;;7.10;1.95;;;21.30;59.10;;;;;;5047502;28;20076;-50
2021/09/17 00:35:23;;;;;;;3.00;2.03;;;21.30;59.20;;;;;;5048325;28;20052;-48
2021/09/17 00:37:52;;;;;;;3.75;2.58;;;21.30;59.20;;;;;;5047074;28;20095;-50
2021/09/17 00:40:20;;;;;;;3.88;2.28;;;21.30;59.40;;;;;;5047416;28;20045;-48
2021/09/17 00:42:47;;;;;;;4.40;1.67;;;21.20;60.00;;;;;;5046349;28;20033;-50
2021/09/17 00:45:15;;;;;;;3.88;2.22;;;21.20;59.40;;;;;;5047995;28;20422;-49
2021/09/17 00:47:42;;;;;;;3.22;1.88;;;21.20;59.60;;;;;;5048554;28;20762;-48
2021/09/17 00:50:12;;;;;;;8.60;2.45;;;21.20;59.60;;;;;;5044958;28;20043;-47
2021/09/17 00:52:39;;;;;;;2.38;2.08;;;21.20;59.70;;;;;;5046254;28;20049;-49
2021/09/17 00:55:09;;;;;;;4.95;2.42;;;21.10;59.70;;;;;;5046764;28;20045;-51
2021/09/17 00:57:38;;;;;;;3.17;2.85;;;21.10;59.80;;;;;;5047055;28;20053;-48
2021/09/17 01:00:07;;;;;;;1.60;1.50;;;21.10;59.80;;;;;;5047406;28;20474;-47
2021/09/17 01:02:34;;;;;;;2.30;1.92;;;21.10;59.90;;;;;;5047299;28;20527;-52
2021/09/17 01:05:02;;;;;;;3.50;2.08;;;21.00;59.90;;;;;;5044486;28;20049;-52
2021/09/17 01:07:29;;;;;;;3.47;3.17;;;21.00;60.00;;;;;;5046649;28;20076;-48
2021/09/17 01:09:57;;;;;;;3.95;1.60;;;21.00;60.00;;;;;;5044782;28;20044;-49
2021/09/17 01:12:26;;;;;;;4.93;2.22;;;21.00;60.20;;;;;;5046781;28;20091;-52
2021/09/17 01:14:53;;;;;;;4.00;2.45;;;21.00;60.20;;;;;;5047628;28;20041;-51
2021/09/17 01:17:20;;;;;;;9.07;2.80;;;21.00;60.20;;;;;;5047618;28;20041;-51
2021/09/17 01:19:48;;;;;;;6.93;2.22;;;20.90;60.10;;;;;;5046250;28;20080;-52
2021/09/17 01:22:17;;;;;;;3.00;1.48;;;20.90;60.90;;;;;;5046606;28;20051;-54
2021/09/17 01:24:44;;;;;;;3.47;2.08;;;20.90;60.60;;;;;;5046138;28;20046;-52
2021/09/17 01:27:11;;;;;;;2.80;1.67;;;20.90;60.70;;;;;;5046395;28;20511;-49
2021/09/17 01:29:38;;;;;;;1.50;1.13;;;20.90;60.80;;;;;;5048079;28;20082;-50
2021/09/17 01:32:06;;;;;;;2.10;1.85;;;20.90;60.80;;;;;;5046312;28;20033;-52
2021/09/17 01:34:33;;;;;;;3.03;1.83;;;20.90;60.70;;;;;;5046153;28;20037;-50
2021/09/17 01:37:00;;;;;;;5.15;1.55;;;20.90;60.70;;;;;;5045924;28;20501;-51
2021/09/17 01:39:29;;;;;;;1.98;1.73;;;20.90;60.60;;;;;;5046105;28;20051;-50
2021/09/17 01:41:57;;;;;;;1.50;0.98;;;20.90;60.60;;;;;;5045017;28;20049;-51
2021/09/17 01:44:24;;;;;;;0.82;0.70;;;20.90;60.60;;;;;;5046478;28;20513;-51
2021/09/17 01:46:51;;;;;;;2.10;1.88;;;20.80;60.60;;;;;;5045386;28;20049;-52
2021/09/17 01:49:18;;;;;;;2.00;1.48;;;20.80;60.60;;;;;;5046252;28;20060;-52
2021/09/17 01:51:46;;;;;;;2.67;1.38;;;20.80;60.70;;;;;;5046287;28;20148;-49
2021/09/17 01:54:13;;;;;;;11.13;1.77;;;20.80;60.80;;;;;;5045710;28;20442;-49
2021/09/17 01:56:41;;;;;;;3.00;1.30;;;20.70;60.80;;;;;;5047785;28;20145;-49
2021/09/17 01:59:09;;;;;;;6.13;2.25;;;20.70;60.90;;;;;;5045942;28;20040;-52
2021/09/17 02:01:43;;;;;;;3.70;1.10;;;20.70;61.50;;;;;;5045549;28;20084;-51
2021/09/17 02:04:10;;;;;;;6.07;1.30;;;20.70;61.10;;;;;;5046253;28;20124;-50
2021/09/17 02:06:37;;;;;;;3.60;1.45;;;20.70;61.10;;;;;;5045333;28;20432;-50
2021/09/17 02:09:06;;;;;;;0.63;0.60;;;20.60;61.10;;;;;;5046581;28;20052;-51
2021/09/17 02:11:33;;;;;;;4.47;1.90;;;20.60;61.10;;;;;;5044078;28;20737;-51
2021/09/17 02:14:02;;;;;;;1.63;1.27;;;20.60;61.20;;;;;;5042849;28;20045;-51
2021/09/17 02:16:30;;;;;;;0.95;0.80;;;20.60;61.50;;;;;;5044979;28;20051;-48
2021/09/17 02:18:58;;;;;;;4.43;1.30;;;20.50;61.40;;;;;;5045109;28;20045;-48
2021/09/17 02:21:25;;;;;;;2.35;0.93;;;20.50;61.30;;;;;;5045120;28;20414;-49
2021/09/17 02:23:52;;;;;;;3.28;0.88;;;20.50;61.40;;;;;;5047073;28;20160;-51
2021/09/17 02:26:20;;;;;;;3.30;1.85;;;20.50;61.40;;;;;;5045918;28;20382;-49
2021/09/17 02:28:47;;;;;;;5.18;1.35;;;20.50;61.50;;;;;;5044901;28;20429;-50
2021/09/17 02:31:16;;;;;;;3.55;1.30;;;20.50;61.60;;;;;;5045798;28;20501;-54
2021/09/17 02:33:44;;;;;;;4.13;0.85;;;20.50;61.90;;;;;;5045449;28;20041;-53
2021/09/17 02:36:11;;;;;;;2.17;1.42;;;20.40;61.70;;;;;;5044909;28;20535;-54
2021/09/17 02:38:38;;;;;;;4.13;1.70;;;20.40;61.70;;;;;;5041123;28;20057;-50
2021/09/17 02:41:05;;;;;;;1.73;1.48;;;20.40;61.70;;;;;;5043523;28;20051;-52
2021/09/17 02:43:34;;;;;;;3.25;2.05;;;20.30;61.80;;;;;;5044609;28;20041;-50
2021/09/17 02:46:01;;;;;;;3.75;1.50;;;20.30;61.90;;;;;;5044843;28;20037;-53
2021/09/17 02:48:30;;;;;;;2.42;1.30;;;20.30;61.90;;;;;;5045777;28;20041;-50
2021/09/17 02:50:57;;;;;;;5.95;1.42;;;20.30;61.90;;;;;;5046426;28;20033;-50
2021/09/17 02:53:26;;;;;;;9.20;2.15;;;20.30;61.90;;;;;;5057659;28;20039;-49
2021/09/17 02:55:53;;;;;;;1.65;1.30;;;20.30;61.90;;;;;;5045677;28;20037;-50
2021/09/17 02:58:20;;;;;;;1.05;1.00;;;20.30;61.90;;;;;;5047541;28;20033;-50
2021/09/17 03:00:47;;;;;;;1.13;1.02;;;20.20;61.90;;;;;;5049678;28;20040;-51
2021/09/17 03:03:16;;;;;;;1.80;1.48;;;20.30;62.00;;;;;;5049849;28;20037;-53
2021/09/17 03:05:45;;;;;;;2.90;1.17;;;20.20;62.00;;;;;;5051231;28;20531;-50
2021/09/17 03:08:13;;;;;;;2.80;1.30;;;20.20;62.00;;;;;;5049218;28;20045;-51
2021/09/17 03:10:40;;;;;;;3.55;1.17;;;20.10;62.00;;;;;;5049390;28;20033;-51
2021/09/17 03:13:08;;;;;;;3.40;1.08;;;20.10;62.30;;;;;;5049475;28;20055;-53
2021/09/17 03:15:35;;;;;;;1.42;1.33;;;20.20;62.30;;;;;;5049548;28;20790;-50
2021/09/17 03:18:04;;;;;;;2.80;1.27;;;20.10;62.20;;;;;;5049947;28;20049;-52
2021/09/17 03:20:31;;;;;;;2.15;0.82;;;20.10;62.20;;;;;;5050969;28;20048;-50
2021/09/17 03:23:00;;;;;;;1.35;0.68;;;20.10;62.20;;;;;;5047860;28;20057;-48
2021/09/17 03:25:28;;;;;;;2.22;1.52;;;20.10;62.20;;;;;;5047862;28;20106;-50
2021/09/17 03:27:55;;;;;;;1.38;1.23;;;20.00;62.10;;;;;;5049681;28;20414;-51
2021/09/17 03:30:22;;;;;;;1.80;1.30;;;20.00;62.20;;;;;;5049560;28;20037;-51
2021/09/17 03:32:49;;;;;;;2.25;1.45;;;20.00;62.30;;;;;;5050699;28;20049;-52
2021/09/17 03:35:17;;;;;;;5.88;1.33;;;20.00;62.30;;;;;;5061717;28;20045;-53
2021/09/17 03:37:44;;;;;;;1.15;1.05;;;20.00;62.40;;;;;;5044685;28;20421;-50
2021/09/17 03:40:13;;;;;;;2.83;1.52;;;20.00;62.50;;;;;;5048854;28;20040;-52
2021/09/17 03:42:40;;;;;;;0.90;0.73;;;19.90;62.50;;;;;;5048887;28;20033;-53
2021/09/17 03:45:09;;;;;;;1.95;1.35;;;19.90;62.50;;;;;;5047493;28;20048;-53
2021/09/17 03:47:36;;;;;;;1.17;1.15;;;19.90;62.40;;;;;;5050665;28;20495;-51
2021/09/17 03:50:04;;;;;;;0.80;0.70;;;19.90;62.50;;;;;;5049122;28;20075;-54
2021/09/17 03:52:31;;;;;;;3.20;1.00;;;19.90;62.50;;;;;;5048896;28;20048;-53
2021/09/17 03:54:59;;;;;;;3.38;1.70;;;19.90;62.50;;;;;;5048632;28;20408;-54
2021/09/17 03:57:28;;;;;;;3.33;2.15;;;19.90;62.50;;;;;;5048748;28;20124;-51
2021/09/17 03:59:55;;;;;;;1.35;1.25;;;19.90;62.60;;;;;;5049284;28;20534;-51
2021/09/17 04:02:22;;;;;;;3.13;1.63;;;19.80;62.60;;;;;;5049405;28;20045;-52
2021/09/17 04:04:49;;;;;;;2.70;1.13;;;19.80;62.70;;;;;;5048735;28;20032;-50
2021/09/17 04:07:16;;;;;;;1.65;1.55;;;19.80;62.70;;;;;;5048370;28;20037;-52
2021/09/17 04:09:44;;;;;;;1.80;1.70;;;19.80;62.70;;;;;;5047857;28;20040;-51
2021/09/17 04:12:11;;;;;;;1.65;1.55;;;19.80;62.80;;;;;;5048771;28;20053;-52
2021/09/17 04:14:40;;;;;;;2.90;1.50;;;19.80;63.40;;;;;;5049964;28;20041;-52
2021/09/17 04:17:07;;;;;;;2.22;1.52;;;19.80;62.90;;;;;;5048481;28;20128;-51
2021/09/17 04:19:36;;;;;;;2.20;2.20;;;19.80;63.00;;;;;;5047999;28;20041;-52
2021/09/17 04:22:04;;;;;;;5.65;2.10;;;19.80;63.00;;;;;;5048365;28;20051;-50
2021/09/17 04:24:32;;;;;;;2.08;1.88;;;19.70;63.00;;;;;;5047789;28;20033;-51
2021/09/17 04:26:59;;;;;;;3.85;2.10;;;19.80;63.10;;;;;;5048670;28;20049;-50
2021/09/17 04:29:26;;;;;;;6.18;1.23;;;19.70;63.00;;;;;;5049598;28;20402;-50
2021/09/17 04:31:55;;;;;;;5.63;1.35;;;19.70;63.10;;;;;;5047803;28;20141;-51
2021/09/17 04:34:23;;;;;;;2.90;1.30;;;19.70;63.10;;;;;;5046824;28;20040;-52
2021/09/17 04:36:50;;;;;;;2.45;1.80;;;19.70;63.10;;;;;;5048053;28;20052;-51
2021/09/17 04:39:17;;;;;;;2.25;1.42;;;19.70;63.10;;;;;;5047430;28;20555;-50
2021/09/17 04:41:45;;;;;;;3.42;1.48;;;19.70;63.20;;;;;;5049397;28;20140;-51
2021/09/17 04:44:12;;;;;;;1.40;1.27;;;19.70;63.20;;;;;;5047849;28;20048;-52
2021/09/17 04:46:39;;;;;;;1.08;0.82;;;19.70;63.20;;;;;;5047817;28;20049;-52
2021/09/17 04:49:08;;;;;;;3.33;1.88;;;19.70;63.50;;;;;;5047763;28;20060;-49
2021/09/17 04:51:35;;;;;;;1.25;1.10;;;19.70;64.10;;;;;;5047683;28;20079;-50
2021/09/17 04:54:02;;;;;;;2.15;0.88;;;19.80;64.50;;;;;;5047756;28;20069;-53
2021/09/17 04:56:30;;;;;;;2.30;1.10;;;19.90;64.90;;;;;;5046484;28;20742;-52
2021/09/17 04:58:57;;;;;;;2.75;0.95;;;20.00;65.20;;;;;;5047271;28;20037;-53
2021/09/17 05:01:24;;;;;;;1.40;0.80;;;20.10;65.30;;;;;;5047547;28;20053;-51
2021/09/17 05:03:51;;;;;;;4.18;1.55;;;20.40;65.40;;;;;;5047557;28;20064;-49
2021/09/17 05:06:20;;;;;;;0.80;0.80;;;20.50;65.60;;;;;;5047829;28;20049;-50
2021/09/17 05:08:48;;;;;;;3.13;0.90;;;20.70;65.60;;;;;;5044642;28;20123;-52
2021/09/17 05:11:15;;;;;;;0.65;0.65;;;20.80;65.40;;;;;;5047948;28;20049;-50
2021/09/17 05:13:42;;;;;;;2.67;1.00;;;21.00;65.20;;;;;;5047544;28;20052;-48
2021/09/17 05:16:09;;;;;;;1.58;0.50;;;21.10;65.00;;;;;;5041820;28;20049;-53
2021/09/17 05:18:37;;;;;;;2.42;0.50;;;21.20;64.90;;;;;;5047313;28;20052;-49
2021/09/17 05:21:04;;;;;;;1.92;0.50;;;21.40;64.80;;;;;;5046543;28;20045;-51
2021/09/17 05:23:33;;;;;;;0.90;0.30;;;21.40;64.60;;;;;;5046462;28;20047;-51
2021/09/17 05:26:02;;;;;;;1.48;0.55;;;21.60;64.60;;;;;;5047362;28;20049;-50
2021/09/17 05:28:29;;;;;;;3.33;1.30;;;21.60;64.40;;;;;;5047187;28;20041;-50
2021/09/17 05:30:57;;;;;;;1.20;0.63;;;21.80;64.40;;;;;;5046866;28;20114;-49
2021/09/17 05:33:24;;;;;;;0.52;0.52;;;21.80;64.30;;;;;;5046486;28;20541;-54
2021/09/17 05:35:51;;;;;;;2.28;0.40;;;21.90;64.30;;;;;;5046935;28;20059;-49
2021/09/17 05:38:19;;;;;;;3.03;0.63;;;22.00;64.30;;;;;;5046604;28;20057;-50
2021/09/17 05:40:47;;;;;;;4.63;1.58;;;22.10;64.30;;;;;;5043239;28;20047;-47
2021/09/17 05:43:14;;;;;;;0.88;0.75;;;22.10;64.30;;;;;;5045715;28;20048;-48
2021/09/17 05:45:42;;;;;;;4.20;0.75;;;22.20;64.20;;;;;;5046506;28;20045;-48
2021/09/17 05:48:09;;;;;;;1.08;0.70;;;22.30;64.30;;;;;;5046377;28;20092;-46
2021/09/17 05:50:37;;;;;;;1.10;0.30;;;22.30;64.20;;;;;;5047128;28;20037;-48
2021/09/17 05:53:04;;;;;;;0.82;0.60;;;22.40;64.30;;;;;;5046519;28;20421;-46
2021/09/17 05:55:31;;;;;;;0.70;0.70;;;22.40;64.20;;;;;;5046086;28;20052;-47
2021/09/17 05:58:00;;;;;;;2.63;0.95;;;22.50;64.20;;;;;;5046521;28;20513;-46
2021/09/17 06:00:27;;;;;;;0.73;0.50;;;22.60;64.10;;;;;;5045873;28;20049;-46
2021/09/17 06:02:55;;;;;;;2.90;0.85;;;22.60;64.00;;;;;;5046766;28;20044;-47
2021/09/17 06:05:22;;;;;;;1.95;1.10;;;22.70;63.90;;;;;;5047471;28;20079;-50
2021/09/17 06:07:50;;;;;;;2.55;0.50;;;22.80;63.80;;;;;;5046284;28;20513;-48
2021/09/17 06:10:17;;;;;;;1.20;0.50;;;22.80;63.70;;;;;;5043302;28;20459;-48
2021/09/17 06:12:45;;;;;;;1.38;0.47;;;22.90;63.60;;;;;;5046666;28;20041;-46
2021/09/17 06:15:16;;;;;;;2.25;0.63;;;22.90;63.40;;;;;;5046394;28;20131;-46
2021/09/17 06:17:44;;;;;;;5.78;0.90;;;23.00;63.40;;;;;;5047527;28;20103;-48
2021/09/17 06:20:13;;;;;;;1.02;0.45;;;23.00;63.20;;;;;;5045676;28;20103;-50
2021/09/17 06:22:43;;;;;;;1.33;0.60;;;23.10;63.10;;;;;;5045371;28;20041;-44
2021/09/17 06:25:11;;;;;;;1.00;0.90;;;23.10;63.10;;;;;;5041426;28;20091;-44
2021/09/17 06:27:38;;;;;;;0.50;0.40;;;23.20;63.80;;;;;;5042330;28;20048;-45
2021/09/17 06:30:06;;;;;;;1.92;0.80;;;23.20;64.30;;;;;;5043677;28;20037;-45
2021/09/17 06:32:35;;;;;;;3.17;0.60;;;23.30;64.70;;;;;;5045597;28;20040;-45
2021/09/17 06:35:03;;;;;;;0.55;0.55;;;23.30;64.90;;;;;;5040819;28;20148;-43
2021/09/17 06:37:30;;;;;;;1.13;0.82;;;23.30;65.00;;;;;;5044652;28;20091;-46
2021/09/17 06:39:58;;;;;;;0.98;0.52;;;23.40;65.00;;;;;;5043976;28;20516;-45
2021/09/17 06:42:25;;;;;;;1.15;0.20;;;23.50;65.00;;;;;;5043796;28;20045;-48
2021/09/17 06:44:52;;;;;;;2.95;0.80;;;23.50;65.00;;;;;;5042902;28;20052;-46
2021/09/17 06:47:20;;;;;;;0.68;0.50;;;23.50;64.90;;;;;;5043352;28;20513;-48
2021/09/17 06:49:49;;;;;;;0.60;0.60;;;23.50;64.80;;;;;;5042951;28;20041;-49
2021/09/17 06:52:16;;;;;;;3.05;0.60;;;23.60;65.30;;;;;;5045122;28;20045;-45
2021/09/17 06:54:43;;;;;;;5.60;0.75;;;23.60;64.90;;;;;;5045169;28;20041;-46
2021/09/17 06:57:11;;;;;;;5.38;0.70;;;23.70;65.00;;;;;;5045062;28;20048;-45
2021/09/17 06:59:43;;;;;;;9.50;0.85;;;23.70;64.90;;;;;;5047353;28;20045;-48
2021/09/17 07:02:10;;;;;;;3.65;1.05;;;23.70;65.00;;;;;;5045253;28;20055;-45
2021/09/17 07:04:40;;;;;;;2.67;0.45;;;23.70;65.00;;;;;;5045120;28;20076;-46
2021/09/17 07:07:09;;;;;;;5.88;0.73;;;23.80;65.00;;;;;;5044404;28;20069;-48
2021/09/17 07:09:36;;;;;;;5.97;0.63;;;23.80;64.90;;;;;;5044227;28;20041;-46
2021/09/17 07:12:04;;;;;;;1.08;0.40;;;23.90;64.90;;;;;;5044744;28;20114;-47
2021/09/17 07:14:31;;;;;;;2.63;0.57;;;23.90;64.70;;;;;;5044566;28;20071;-47
2021/09/17 07:16:58;;;;;;;8.43;1.40;;;23.90;64.60;;;;;;5044279;28;20152;-47
2021/09/17 07:19:26;;;;;;;4.80;0.52;;;23.90;64.50;;;;;;5043706;28;20114;-47
2021/09/17 07:21:53;;;;;;;3.65;0.60;;;24.00;64.50;;;;;;5045182;28;20036;-44
2021/09/17 07:24:22;;;;;;;2.97;0.75;;;24.00;64.40;;;;;;5045586;28;20052;-46
2021/09/17 07:26:51;;;;;;;2.58;0.70;;;24.10;64.30;;;;;;5043294;28;20048;-46
2021/09/17 07:29:18;;;;;;;4.03;0.88;;;24.10;64.10;;;;;;5046549;28;20093;-46
2021/09/17 07:31:45;;;;;;;1.50;0.60;;;24.10;64.00;;;;;;5044594;28;20083;-48
2021/09/17 07:34:12;;;;;;;4.00;0.50;;;24.10;63.80;;;;;;5045332;28;20063;-46
2021/09/17 07:36:40;;;;;;;3.08;0.60;;;24.10;63.60;;;;;;5044176;28;20531;-47
2021/09/17 07:39:09;;;;;;;0.60;0.60;;;24.10;63.40;;;;;;5045326;28;20147;-46
2021/09/17 07:41:38;;;;;;;2.08;0.93;;;24.10;63.20;;;;;;5047023;28;20045;-47
2021/09/17 07:44:05;;;;;;;3.90;0.65;;;24.20;63.10;;;;;;5041216;28;20036;-46
2021/09/17 07:46:33;;;;;;;1.30;0.88;;;24.20;62.90;;;;;;5042004;28;20578;-48
2021/09/17 07:49:00;;;;;;;0.93;0.50;;;24.20;62.80;;;;;;5049194;28;20059;-47
2021/09/17 07:51:27;;;;;;;3.40;0.40;;;24.20;62.60;;;;;;5048960;28;20053;-48
2021/09/17 07:53:55;;;;;;;1.42;0.60;;;24.20;62.40;;;;;;5049652;28;20054;-46
2021/09/17 07:56:22;;;;;;;1.23;0.68;;;24.20;62.30;;;;;;5049728;28;20048;-46
2021/09/17 07:58:51;;;;;;;0.68;0.57;;;24.30;62.20;;;;;;5048405;28;20041;-45
2021/09/17 08:01:18;;;;;;;0.50;0.30;;;24.30;62.00;;;;;;5048506;28;20143;-47
2021/09/17 08:03:46;;;;;;;3.60;0.63;;;24.30;61.90;;;;;;5048488;28;20408;-48
2021/09/17 08:06:14;;;;;;;1.30;0.43;;;24.30;61.70;;;;;;5049999;28;20033;-47
2021/09/17 08:08:42;;;;;;;3.67;0.60;;;24.30;61.60;;;;;;5050440;28;20049;-47
2021/09/17 08:11:09;;;;;;;1.02;0.20;;;24.30;61.50;;;;;;5048643;28;20056;-51
2021/09/17 08:13:37;;;;;;;0.93;0.65;;;24.40;61.40;;;;;;5048144;28;20124;-52
2021/09/17 08:16:06;;;;;;;0.40;0.20;;;24.40;61.20;;;;;;5047777;28;20122;-49
2021/09/17 08:18:34;;;;;;;2.88;0.70;;;24.40;61.00;;;;;;5048155;28;20041;-51
2021/09/17 08:21:01;;;;;;;0.60;0.57;;;24.40;60.90;;;;;;5047903;28;20061;-50
2021/09/17 08:23:29;;;;;;;1.50;0.50;;;24.40;60.90;;;;;;5049621;28;20045;-53
2021/09/17 08:25:56;;;;;;;2.45;0.35;;;24.50;60.80;;;;;;5048157;28;20049;-51
2021/09/17 08:28:24;;;;;;;0.63;0.50;;;24.50;60.60;;;;;;5048050;28;20045;-48
2021/09/17 08:30:52;;;;;;;6.55;0.55;;;24.50;60.50;;;;;;5039027;28;20049;-48
2021/09/17 08:33:43;;;;;;;3.88;0.15;;;24.60;60.30;;;;;;5046707;28;20175;-48
2021/09/17 08:36:30;;;;;;;6.70;0.32;;;24.60;60.20;;;;;;5036291;28;20517;-49
2021/09/17 08:39:20;;;;;;;1.05;0.50;;;24.60;60.00;;;;;;5031350;28;20048;-50
2021/09/17 08:41:48;;;;;;;4.35;0.25;;;24.60;59.90;;;;;;5045398;28;20779;-46
2021/09/17 08:44:16;;;;;;;4.85;0.50;;;24.60;59.70;;;;;;5047070;28;20383;-48
2021/09/17 08:46:45;;;;;;;0.47;0.47;;;24.60;59.60;;;;;;5047207;28;20090;-50
2021/09/17 08:49:15;;;;;;;0.73;0.35;;;24.60;59.50;;;;;;5047756;28;20056;-48
2021/09/17 08:51:44;;;;;;;0.77;0.20;;;24.60;59.40;;;;;;5047866;28;20075;-47
2021/09/17 08:54:12;;;;;;;1.05;0.47;;;24.70;59.40;;;;;;5046882;28;20534;-51
2021/09/17 08:56:40;;;;;;;1.65;0.82;;;24.60;59.20;;;;;;5049244;28;20525;-46
2021/09/17 08:59:07;;;;;;;3.08;0.20;;;24.70;59.10;;;;;;5046764;28;20033;-48
2021/09/17 09:01:36;;;;;;;1.45;0.20;;;24.70;59.10;;;;;;5046934;28;20052;-51
2021/09/17 09:04:07;;;;;;;1.35;0.10;;;24.70;59.00;;;;;;5047858;28;20040;-47
2021/09/17 09:06:37;;;;;;;1.48;0.30;;;24.70;58.90;;;;;;5046431;28;20509;-47
2021/09/17 09:09:09;;;;;;;0.10;0.10;;;24.70;58.80;;;;;;5046853;28;20045;-46
2021/09/17 09:11:37;;;;;;;1.13;0.30;;;24.70;58.70;;;;;;5047773;28;20075;-47
2021/09/17 09:14:09;;;;;;;0.30;0.30;;;24.70;58.60;;;;;;5047134;28;20505;-50
2021/09/17 09:16:38;;;;;;;2.55;0.40;;;24.80;58.60;;;;;;5046795;28;20041;-49
2021/09/17 09:19:24;;;;;;;2.13;0.20;;;24.80;58.90;;;;;;5047565;28;20033;-46
2021/09/17 09:21:54;;;;;;;0.63;0.40;;;24.90;58.40;;;;;;5047695;28;20076;-49
2021/09/17 09:24:23;;;;;;;2.28;0.30;;;24.80;58.40;;;;;;5029301;28;20045;-47
2021/09/17 09:27:09;;;;;;;1.40;0.40;;;24.80;58.20;;;;;;5045252;28;20041;-45
2021/09/17 09:29:38;;;;;;;1.17;0.10;;;24.90;58.10;;;;;;5046445;28;20131;-47
2021/09/17 09:32:06;;;;;;;2.38;0.65;;;24.80;58.10;;;;;;5047071;28;20053;-47
2021/09/17 09:34:53;;;;;;;1.55;0.50;;;24.90;58.00;;;;;;5046248;28;20060;-48
2021/09/17 09:37:25;;;;;;;0.52;0.20;;;24.90;57.90;;;;;;5047028;28;20044;-50
2021/09/17 09:39:54;;;;;;;1.13;0.20;;;24.90;57.90;;;;;;5046174;28;20043;-45
2021/09/17 09:42:28;;;;;;;0.68;0.13;;;24.90;57.80;;;;;;5031151;28;20501;-49
2021/09/17 09:45:17;;;;;;;1.10;0.38;;;24.90;57.80;;;;;;5044263;28;20033;-46
2021/09/17 09:47:46;;;;;;;1.40;0.17;;;25.00;57.60;;;;;;5047541;28;20045;-45
2021/09/17 09:50:16;;;;;;;1.75;0.10;;;24.90;57.60;;;;;;5046232;28;20167;-45
2021/09/17 09:52:45;;;;;;;0.82;0.20;;;24.90;57.50;;;;;;5045559;28;20076;-46
2021/09/17 09:55:13;;;;;;;1.55;0.38;;;25.00;57.40;;;;;;5045785;28;20146;-47
2021/09/17 09:57:42;;;;;;;0.90;0.88;;;25.00;57.30;;;;;;5045681;28;20405;-49
2021/09/17 10:00:12;;;;;;;0.52;0.20;;;25.00;57.10;;;;;;5045759;28;20525;-47
2021/09/17 10:02:41;;;;;;;0.28;0.20;;;25.10;57.10;;;;;;5047897;28;20052;-45
2021/09/17 10:05:10;;;;;;;1.10;0.25;;;25.10;57.00;;;;;;5045596;28;20064;-45
2021/09/17 10:07:39;;;;;;;0.95;0.35;;;25.10;56.90;;;;;;5044825;28;20055;-48
2021/09/17 10:10:10;;;;;;;0.25;0.20;;;25.10;56.70;;;;;;5046547;28;20131;-48
2021/09/17 10:12:39;;;;;;;0.30;0.20;;;25.10;56.60;;;;;;5046151;28;20044;-48
2021/09/17 10:15:09;;;;;;;1.15;0.30;;;25.20;56.50;;;;;;5036316;28;20095;-48
2021/09/17 10:17:38;;;;;;;0.55;0.17;;;25.20;56.30;;;;;;5046450;28;20063;-47
2021/09/17 10:20:08;;;;;;;1.75;0.30;;;25.20;56.20;;;;;;5046373;28;20048;-48
2021/09/17 10:22:38;;;;;;;0.60;0.20;;;25.20;56.00;;;;;;5046263;28;20045;-48
2021/09/17 10:25:12;;;;;;;0.52;0.20;;;25.20;56.10;;;;;;5045401;28;20044;-49
2021/09/17 10:27:41;;;;;;;0.65;0.10;;;25.30;56.00;;;;;;5046231;28;20045;-46
2021/09/17 10:30:13;;;;;;;0.32;0.28;;;25.30;56.50;;;;;;5046493;28;20037;-49
2021/09/17 10:32:49;;;;;;;1.05;0.15;;;25.30;55.90;;;;;;5047304;28;20041;-49
2021/09/17 10:35:20;;;;;;;2.25;0.10;;;25.30;55.70;;;;;;5046445;28;20049;-46
2021/09/17 10:38:15;;;;;;;0.52;0.10;;;25.30;55.80;;;;;;5045538;28;20076;-45
2021/09/17 10:40:53;;;;;;;0.10;0.10;;;25.30;55.80;;;;;;5045195;28;20048;-50
2021/09/17 10:43:33;;;;;;;0.17;0.10;;;25.30;55.90;;;;;;5045873;28;20041;-46
2021/09/17 10:46:02;;;;;;;0.50;0.10;;;25.40;55.70;;;;;;5035397;28;20047;-49
2021/09/17 10:48:52;;;;;;;0.25;0.13;;;25.40;55.60;;;;;;5045670;28;20767;-45
2021/09/17 10:51:33;;;;;;;0.13;0.13;;;25.40;55.50;;;;;;5045809;28;20037;-49
2021/09/17 10:54:02;;;;;;;2.50;0.52;;;25.40;55.60;;;;;;5044229;28;20044;-45
2021/09/17 10:57:07;;;;;;;0.45;0.10;;;25.40;55.60;;;;;;5046327;28;20029;-45
2021/09/17 10:59:52;;;;;;;0.75;0.10;;;25.50;55.60;;;;;;5038742;28;20136;-47
2021/09/17 11:02:26;;;;;;;1.38;0.20;;;25.50;55.60;;;;;;5045800;28;20052;-46
2021/09/17 11:04:53;;;;;;;0.20;0.20;;;25.50;55.50;;;;;;5046004;28;20533;-46
2021/09/17 11:07:35;;;;;;;0.95;0.30;;;25.50;55.40;;;;;;5043653;28;20037;-49
2021/09/17 11:10:07;;;;;;;0.77;0.68;;;25.60;55.40;;;;;;5042669;28;20135;-47
2021/09/17 11:12:38;;;;;;;0.10;0.10;;;25.60;55.30;;;;;;5043865;28;20406;-48
2021/09/17 11:15:11;;;;;;;0.10;0.10;;;25.60;55.20;;;;;;5046017;28;20044;-47
2021/09/17 11:17:41;;;;;;;1.73;0.20;;;25.60;55.10;;;;;;5045945;28;20056;-46
2021/09/17 11:20:11;;;;;;;0.38;0.38;;;25.60;55.00;;;;;;5047313;28;20045;-47
2021/09/17 11:22:57;;;;;;;2.05;0.10;;;25.70;55.00;;;;;;5047666;28;20053;-46
2021/09/17 11:25:28;;;;;;;1.25;0.20;;;25.70;54.80;;;;;;5047491;28;20053;-46
2021/09/17 11:27:58;;;;;;;0.77;0.10;;;25.70;54.70;;;;;;5047663;28;20041;-46
2021/09/17 11:30:26;;;;;;;0.40;0.40;;;25.70;54.60;;;;;;5049732;28;20041;-47
2021/09/17 11:32:55;;;;;;;0.20;0.20;;;25.80;54.60;;;;;;5049745;28;20049;-45
2021/09/17 11:35:22;;;;;;;0.30;0.30;;;25.70;54.40;;;;;;5049243;28;20049;-46
2021/09/17 11:37:55;;;;;;;1.08;0.35;;;25.80;54.40;;;;;;5048445;28;20047;-45
2021/09/17 11:40:24;;;;;;;1.48;0.38;;;25.80;54.30;;;;;;5048971;28;20077;-46
2021/09/17 11:42:51;;;;;;;0.20;0.17;;;25.90;54.30;;;;;;5049424;28;20122;-48
2021/09/17 11:45:23;;;;;;;4.18;0.95;;;25.90;54.20;;;;;;5049408;28;20662;-47
2021/09/17 11:47:53;;;;;;;0.68;0.20;;;25.90;54.00;;;;;;5046766;28;20041;-48
2021/09/17 11:50:25;;;;;;;0.60;0.45;;;25.90;53.90;;;;;;5048347;28;20059;-50
2021/09/17 11:52:53;;;;;;;0.85;0.80;;;25.90;53.90;;;;;;5048752;28;20110;-48
2021/09/17 11:55:23;;;;;;;2.53;0.32;;;25.90;53.70;;;;;;5049398;28;20045;-47
2021/09/17 11:57:51;;;;;;;0.45;0.45;;;26.00;53.60;;;;;;5040915;28;20412;-48
2021/09/17 12:00:23;;;;;;;0.85;0.32;;;26.00;53.50;;;;;;5048583;28;20041;-46
2021/09/17 12:02:53;;;;;;;1.52;0.82;;;26.10;53.40;;;;;;5049989;28;20056;-47
2021/09/17 12:05:23;;;;;;;0.63;0.32;;;26.00;53.30;;;;;;5049513;28;20563;-47
2021/09/17 12:07:51;;;;;;;3.28;0.63;;;26.10;53.40;;;;;;5048490;28;20040;-47
2021/09/17 12:10:25;;;;;;;1.00;0.45;;;26.10;53.30;;;;;;5049068;28;20106;-48
2021/09/17 12:13:00;;;;;;;0.95;0.63;;;26.20;53.30;;;;;;5048983;28;20462;-47
2021/09/17 12:15:30;;;;;;;1.00;0.60;;;26.20;53.30;;;;;;5034106;28;20448;-47
2021/09/17 12:17:59;;;;;;;2.35;1.00;;;26.20;53.20;;;;;;5049804;28;20055;-48
2021/09/17 12:20:41;;;;;;;0.90;0.52;;;26.20;53.20;;;;;;5049537;28;20060;-50
2021/09/17 12:23:14;;;;;;;0.73;0.63;;;26.30;53.20;;;;;;5048333;28;20821;-45
2021/09/17 12:28:44;;;;;;;1.80;0.50;;;26.30;53.10;;;;;;5042920;28;20056;-49
2021/09/17 12:31:39;;;;;;;2.08;1.13;;;26.30;53.00;;;;;;5048298;28;20056;-51
2021/09/17 12:34:08;;;;;;;1.35;0.50;;;26.30;52.90;;;;;;5048416;28;20547;-47
2021/09/17 12:36:38;;;;;;;1.30;1.08;;;26.30;52.90;;;;;;5048276;28;20612;-53
2021/09/17 12:39:08;;;;;;;0.60;0.38;;;26.40;52.80;;;;;;5040193;28;20053;-48
2021/09/17 12:41:37;;;;;;;0.70;0.40;;;26.40;52.60;;;;;;5048537;28;20049;-48
2021/09/17 12:44:08;;;;;;;1.08;0.80;;;26.40;52.50;;;;;;5047122;28;20200;-51
2021/09/17 12:46:42;;;;;;;0.40;0.40;;;26.40;52.40;;;;;;5042061;28;20078;-51
2021/09/17 12:49:10;;;;;;;1.27;0.40;;;26.50;52.30;;;;;;5047909;28;20039;-48
2021/09/17 12:51:38;;;;;;;0.90;0.60;;;26.50;52.30;;;;;;5048159;28;20040;-48
2021/09/17 12:54:10;;;;;;;1.25;0.57;;;26.50;52.20;;;;;;5048725;28;20102;-49
2021/09/17 12:56:38;;;;;;;2.28;0.70;;;26.50;52.20;;;;;;5048243;28;20524;-46
2021/09/17 12:59:09;;;;;;;1.30;0.50;;;26.50;52.20;;;;;;5048028;28;20053;-46
2021/09/17 13:01:39;;;;;;;4.57;1.15;;;26.60;52.20;;;;;;5047940;28;20398;-47